Terminal Aerodrome Forecast
Issued by NWS

Home | Current Version | Previous Version | Text Only | Print | Product List | Glossary On
Versions: 1 2 3 4 5 6 7 8 9 10 11 12 13 14 15 16 17
793
FTUS46 KMTR 251736
TAFSTS
TAF
KSTS 251736Z 2518/2618 19006KT P6SM SCT008 OVC020
     FM252000 20010KT P6SM SCT012
     FM260000 19006KT P6SM BKN012
     FM260500 17004KT P6SM BKN010
     FM261000 VRB02KT P6SM OVC008
     FM261700 16004KT P6SM SCT008 OVC020=

USA.gov is the U.S. government's official web portal to all federal, state and local government web resources and services.